sensor_id;sensor_type;location;lat;lon;timestamp;P1;durP1;ratioP1;P2;durP2;ratioP2
41061;SDS011;26812;42.662;23.352;2023-02-28T00:01:11;15.05;;;9.98;;
41061;SDS011;26812;42.662;23.352;2023-02-28T00:03:38;15.18;;;8.85;;
41061;SDS011;26812;42.662;23.352;2023-02-28T00:06:04;13.77;;;8.80;;
41061;SDS011;26812;42.662;23.352;2023-02-28T00:08:30;20.85;;;10.32;;
41061;SDS011;26812;42.662;23.352;2023-02-28T00:10:56;16.23;;;9.48;;
41061;SDS011;26812;42.662;23.352;2023-02-28T00:13:21;15.70;;;10.35;;
41061;SDS011;26812;42.662;23.352;2023-02-28T00:15:47;16.77;;;10.18;;
41061;SDS011;26812;42.662;23.352;2023-02-28T00:18:12;20.40;;;10.38;;
41061;SDS011;26812;42.662;23.352;2023-02-28T00:20:38;21.17;;;10.60;;
41061;SDS011;26812;42.662;23.352;2023-02-28T00:23:04;18.58;;;9.32;;
41061;SDS011;26812;42.662;23.352;2023-02-28T00:25:29;20.20;;;10.57;;
41061;SDS011;26812;42.662;23.352;2023-02-28T00:27:55;12.75;;;9.32;;
41061;SDS011;26812;42.662;23.352;2023-02-28T00:30:21;16.55;;;10.48;;
41061;SDS011;26812;42.662;23.352;2023-02-28T00:32:48;17.75;;;10.02;;
41061;SDS011;26812;42.662;23.352;2023-02-28T00:35:14;15.52;;;10.02;;
41061;SDS011;26812;42.662;23.352;2023-02-28T00:37:40;16.15;;;9.48;;
41061;SDS011;26812;42.662;23.352;2023-02-28T00:40:06;17.42;;;10.43;;
41061;SDS011;26812;42.662;23.352;2023-02-28T00:42:35;15.60;;;9.52;;
41061;SDS011;26812;42.662;23.352;2023-02-28T00:45:01;16.63;;;9.52;;
41061;SDS011;26812;42.662;23.352;2023-02-28T00:47:29;15.48;;;10.57;;
41061;SDS011;26812;42.662;23.352;2023-02-28T00:49:54;18.75;;;10.43;;
41061;SDS011;26812;42.662;23.352;2023-02-28T00:52:20;15.82;;;9.88;;
41061;SDS011;26812;42.662;23.352;2023-02-28T00:54:46;19.35;;;9.75;;
41061;SDS011;26812;42.662;23.352;2023-02-28T00:57:14;18.10;;;9.20;;
41061;SDS011;26812;42.662;23.352;2023-02-28T00:59:40;16.60;;;9.88;;
41061;SDS011;26812;42.662;23.352;2023-02-28T01:02:05;18.55;;;9.50;;
41061;SDS011;26812;42.662;23.352;2023-02-28T01:04:31;17.60;;;10.65;;
41061;SDS011;26812;42.662;23.352;2023-02-28T01:06:56;19.60;;;10.77;;
41061;SDS011;26812;42.662;23.352;2023-02-28T01:09:22;16.45;;;9.65;;
41061;SDS011;26812;42.662;23.352;2023-02-28T01:11:47;15.63;;;9.98;;
41061;SDS011;26812;42.662;23.352;2023-02-28T01:14:13;15.73;;;9.20;;
41061;SDS011;26812;42.662;23.352;2023-02-28T01:16:40;16.67;;;9.90;;
41061;SDS011;26812;42.662;23.352;2023-02-28T01:19:06;18.50;;;10.23;;
41061;SDS011;26812;42.662;23.352;2023-02-28T01:21:31;22.25;;;10.93;;
41061;SDS011;26812;42.662;23.352;2023-02-28T01:23:57;18.17;;;11.88;;
41061;SDS011;26812;42.662;23.352;2023-02-28T01:26:23;19.83;;;11.70;;
41061;SDS011;26812;42.662;23.352;2023-02-28T01:28:48;21.20;;;12.50;;
41061;SDS011;26812;42.662;23.352;2023-02-28T01:31:15;19.92;;;12.15;;
41061;SDS011;26812;42.662;23.352;2023-02-28T01:33:41;19.80;;;12.45;;
41061;SDS011;26812;42.662;23.352;2023-02-28T01:36:09;24.73;;;13.55;;
41061;SDS011;26812;42.662;23.352;2023-02-28T01:38:39;20.40;;;12.90;;
41061;SDS011;26812;42.662;23.352;2023-02-28T01:41:06;24.35;;;13.60;;
41061;SDS011;26812;42.662;23.352;2023-02-28T01:43:52;24.30;;;13.90;;
41061;SDS011;26812;42.662;23.352;2023-02-28T01:46:18;19.65;;;13.32;;
41061;SDS011;26812;42.662;23.352;2023-02-28T01:48:51;22.88;;;12.00;;
41061;SDS011;26812;42.662;23.352;2023-02-28T01:51:22;22.90;;;12.65;;
41061;SDS011;26812;42.662;23.352;2023-02-28T01:53:59;22.25;;;13.35;;
41061;SDS011;26812;42.662;23.352;2023-02-28T01:56:28;25.20;;;12.75;;
41061;SDS011;26812;42.662;23.352;2023-02-28T01:58:57;22.70;;;12.55;;
41061;SDS011;26812;42.662;23.352;2023-02-28T02:01:24;20.85;;;12.05;;
41061;SDS011;26812;42.662;23.352;2023-02-28T02:03:55;21.65;;;12.40;;
41061;SDS011;26812;42.662;23.352;2023-02-28T02:06:31;20.15;;;12.90;;
41061;SDS011;26812;42.662;23.352;2023-02-28T02:09:00;21.20;;;13.00;;
41061;SDS011;26812;42.662;23.352;2023-02-28T02:11:27;22.90;;;13.27;;
41061;SDS011;26812;42.662;23.352;2023-02-28T02:17:03;20.92;;;12.38;;
41061;SDS011;26812;42.662;23.352;2023-02-28T02:23:08;27.85;;;13.73;;
41061;SDS011;26812;42.662;23.352;2023-02-28T02:26:02;19.73;;;12.13;;
41061;SDS011;26812;42.662;23.352;2023-02-28T02:40:03;21.85;;;12.80;;
41061;SDS011;26812;42.662;23.352;2023-02-28T02:45:32;19.70;;;12.20;;
41061;SDS011;26812;42.662;23.352;2023-02-28T02:48:02;21.70;;;12.73;;
41061;SDS011;26812;42.662;23.352;2023-02-28T02:50:54;22.20;;;12.63;;
41061;SDS011;26812;42.662;23.352;2023-02-28T02:53:23;19.33;;;11.93;;
41061;SDS011;26812;42.662;23.352;2023-02-28T02:55:54;22.13;;;12.82;;
41061;SDS011;26812;42.662;23.352;2023-02-28T02:58:26;21.98;;;12.85;;
41061;SDS011;26812;42.662;23.352;2023-02-28T03:00:57;24.33;;;13.60;;
41061;SDS011;26812;42.662;23.352;2023-02-28T03:03:27;22.90;;;12.77;;
41061;SDS011;26812;42.662;23.352;2023-02-28T03:05:58;22.70;;;12.95;;
41061;SDS011;26812;42.662;23.352;2023-02-28T03:08:25;24.40;;;12.98;;
41061;SDS011;26812;42.662;23.352;2023-02-28T03:10:57;20.00;;;12.23;;
41061;SDS011;26812;42.662;23.352;2023-02-28T03:24:50;24.90;;;13.80;;
41061;SDS011;26812;42.662;23.352;2023-02-28T03:29:40;24.77;;;13.25;;
41061;SDS011;26812;42.662;23.352;2023-02-28T03:32:22;19.77;;;11.55;;
41061;SDS011;26812;42.662;23.352;2023-02-28T03:37:31;24.05;;;12.70;;
41061;SDS011;26812;42.662;23.352;2023-02-28T03:40:03;24.23;;;13.98;;
41061;SDS011;26812;42.662;23.352;2023-02-28T03:42:33;26.73;;;14.30;;
41061;SDS011;26812;42.662;23.352;2023-02-28T03:45:11;29.67;;;14.88;;
41061;SDS011;26812;42.662;23.352;2023-02-28T03:47:40;27.35;;;14.63;;
41061;SDS011;26812;42.662;23.352;2023-02-28T03:55:42;29.80;;;14.95;;
41061;SDS011;26812;42.662;23.352;2023-02-28T03:58:30;31.83;;;16.55;;
41061;SDS011;26812;42.662;23.352;2023-02-28T04:01:09;29.38;;;14.18;;
41061;SDS011;26812;42.662;23.352;2023-02-28T04:03:41;33.45;;;16.83;;
41061;SDS011;26812;42.662;23.352;2023-02-28T04:06:13;32.17;;;16.55;;
41061;SDS011;26812;42.662;23.352;2023-02-28T04:08:41;21.33;;;11.90;;
41061;SDS011;26812;42.662;23.352;2023-02-28T04:11:11;36.45;;;16.88;;
41061;SDS011;26812;42.662;23.352;2023-02-28T04:13:40;30.40;;;14.93;;
41061;SDS011;26812;42.662;23.352;2023-02-28T04:16:08;28.92;;;15.85;;
41061;SDS011;26812;42.662;23.352;2023-02-28T04:18:40;29.85;;;14.73;;
41061;SDS011;26812;42.662;23.352;2023-02-28T04:21:08;29.20;;;13.55;;
41061;SDS011;26812;42.662;23.352;2023-02-28T04:23:33;22.80;;;12.98;;
41061;SDS011;26812;42.662;23.352;2023-02-28T04:25:59;27.02;;;13.85;;
41061;SDS011;26812;42.662;23.352;2023-02-28T04:28:25;22.55;;;12.50;;
41061;SDS011;26812;42.662;23.352;2023-02-28T04:30:58;26.75;;;14.27;;
41061;SDS011;26812;42.662;23.352;2023-02-28T04:33:25;28.65;;;12.90;;
41061;SDS011;26812;42.662;23.352;2023-02-28T04:36:07;27.38;;;13.35;;
41061;SDS011;26812;42.662;23.352;2023-02-28T04:38:37;27.67;;;14.13;;
41061;SDS011;26812;42.662;23.352;2023-02-28T04:41:04;27.63;;;13.70;;
41061;SDS011;26812;42.662;23.352;2023-02-28T04:43:30;25.58;;;13.63;;
41061;SDS011;26812;42.662;23.352;2023-02-28T04:45:56;26.60;;;13.68;;
41061;SDS011;26812;42.662;23.352;2023-02-28T04:48:23;27.48;;;14.05;;
41061;SDS011;26812;42.662;23.352;2023-02-28T04:50:50;26.48;;;14.65;;
41061;SDS011;26812;42.662;23.352;2023-02-28T04:53:17;28.70;;;14.60;;
41061;SDS011;26812;42.662;23.352;2023-02-28T04:55:42;33.25;;;16.05;;
41061;SDS011;26812;42.662;23.352;2023-02-28T04:58:08;31.80;;;16.48;;
41061;SDS011;26812;42.662;23.352;2023-02-28T05:00:33;29.52;;;15.10;;
41061;SDS011;26812;42.662;23.352;2023-02-28T05:02:59;31.08;;;15.57;;
41061;SDS011;26812;42.662;23.352;2023-02-28T05:05:24;28.67;;;15.90;;
41061;SDS011;26812;42.662;23.352;2023-02-28T05:07:49;33.60;;;17.17;;
41061;SDS011;26812;42.662;23.352;2023-02-28T05:10:15;33.65;;;16.67;;
41061;SDS011;26812;42.662;23.352;2023-02-28T05:12:40;33.38;;;17.63;;
41061;SDS011;26812;42.662;23.352;2023-02-28T05:15:06;33.20;;;16.65;;
41061;SDS011;26812;42.662;23.352;2023-02-28T05:17:33;35.17;;;18.35;;
41061;SDS011;26812;42.662;23.352;2023-02-28T05:19:59;33.15;;;17.25;;
41061;SDS011;26812;42.662;23.352;2023-02-28T05:22:24;36.28;;;18.10;;
41061;SDS011;26812;42.662;23.352;2023-02-28T05:24:49;33.40;;;18.05;;
41061;SDS011;26812;42.662;23.352;2023-02-28T05:27:15;34.25;;;16.75;;
41061;SDS011;26812;42.662;23.352;2023-02-28T05:29:40;38.90;;;20.02;;
41061;SDS011;26812;42.662;23.352;2023-02-28T05:34:39;37.85;;;18.67;;
41061;SDS011;26812;42.662;23.352;2023-02-28T05:37:12;38.40;;;18.60;;
41061;SDS011;26812;42.662;23.352;2023-02-28T05:39:39;31.77;;;18.58;;
41061;SDS011;26812;42.662;23.352;2023-02-28T05:42:04;37.97;;;19.27;;
41061;SDS011;26812;42.662;23.352;2023-02-28T05:44:30;41.20;;;20.13;;
41061;SDS011;26812;42.662;23.352;2023-02-28T05:46:55;40.08;;;20.80;;
41061;SDS011;26812;42.662;23.352;2023-02-28T05:49:21;41.05;;;19.83;;
41061;SDS011;26812;42.662;23.352;2023-02-28T05:51:47;40.35;;;21.27;;
41061;SDS011;26812;42.662;23.352;2023-02-28T05:54:12;40.08;;;20.52;;
41061;SDS011;26812;42.662;23.352;2023-02-28T05:56:38;39.17;;;21.45;;
41061;SDS011;26812;42.662;23.352;2023-02-28T05:59:05;37.75;;;19.38;;
41061;SDS011;26812;42.662;23.352;2023-02-28T06:04:01;44.70;;;20.75;;
41061;SDS011;26812;42.662;23.352;2023-02-28T06:06:27;43.85;;;21.10;;
41061;SDS011;26812;42.662;23.352;2023-02-28T06:08:54;43.45;;;22.08;;
41061;SDS011;26812;42.662;23.352;2023-02-28T06:11:20;39.70;;;19.58;;
41061;SDS011;26812;42.662;23.352;2023-02-28T06:13:46;39.58;;;19.92;;
41061;SDS011;26812;42.662;23.352;2023-02-28T06:16:11;41.97;;;22.10;;
41061;SDS011;26812;42.662;23.352;2023-02-28T06:18:37;39.78;;;19.75;;
41061;SDS011;26812;42.662;23.352;2023-02-28T06:21:03;41.65;;;19.88;;
41061;SDS011;26812;42.662;23.352;2023-02-28T06:23:28;34.00;;;17.88;;
41061;SDS011;26812;42.662;23.352;2023-02-28T06:25:54;40.97;;;20.98;;
41061;SDS011;26812;42.662;23.352;2023-02-28T06:28:23;40.13;;;21.27;;
41061;SDS011;26812;42.662;23.352;2023-02-28T06:30:48;42.20;;;21.30;;
41061;SDS011;26812;42.662;23.352;2023-02-28T06:33:14;42.58;;;21.42;;
41061;SDS011;26812;42.662;23.352;2023-02-28T06:35:39;38.50;;;20.20;;
41061;SDS011;26812;42.662;23.352;2023-02-28T06:38:05;40.40;;;19.90;;
41061;SDS011;26812;42.662;23.352;2023-02-28T06:40:30;39.90;;;21.02;;
41061;SDS011;26812;42.662;23.352;2023-02-28T06:42:59;36.80;;;21.08;;
41061;SDS011;26812;42.662;23.352;2023-02-28T06:45:24;41.97;;;21.70;;
41061;SDS011;26812;42.662;23.352;2023-02-28T06:47:51;37.67;;;20.08;;
41061;SDS011;26812;42.662;23.352;2023-02-28T06:50:17;39.22;;;19.67;;
41061;SDS011;26812;42.662;23.352;2023-02-28T06:52:44;39.25;;;19.25;;
41061;SDS011;26812;42.662;23.352;2023-02-28T06:55:10;41.58;;;19.35;;
41061;SDS011;26812;42.662;23.352;2023-02-28T06:57:35;34.78;;;19.70;;
41061;SDS011;26812;42.662;23.352;2023-02-28T07:00:03;41.40;;;19.52;;
41061;SDS011;26812;42.662;23.352;2023-02-28T07:02:32;36.08;;;17.77;;
41061;SDS011;26812;42.662;23.352;2023-02-28T07:04:59;32.38;;;18.75;;
41061;SDS011;26812;42.662;23.352;2023-02-28T07:07:24;33.88;;;18.50;;
41061;SDS011;26812;42.662;23.352;2023-02-28T07:09:49;38.63;;;18.73;;
41061;SDS011;26812;42.662;23.352;2023-02-28T07:12:15;38.25;;;19.10;;
41061;SDS011;26812;42.662;23.352;2023-02-28T07:14:40;37.58;;;20.88;;
41061;SDS011;26812;42.662;23.352;2023-02-28T07:17:06;33.30;;;17.73;;
41061;SDS011;26812;42.662;23.352;2023-02-28T07:19:39;32.15;;;16.83;;
41061;SDS011;26812;42.662;23.352;2023-02-28T07:22:05;32.03;;;17.58;;
41061;SDS011;26812;42.662;23.352;2023-02-28T07:24:31;31.45;;;18.60;;
41061;SDS011;26812;42.662;23.352;2023-02-28T07:26:56;31.77;;;17.65;;
41061;SDS011;26812;42.662;23.352;2023-02-28T07:29:22;29.33;;;17.40;;
41061;SDS011;26812;42.662;23.352;2023-02-28T07:31:47;31.90;;;17.77;;
41061;SDS011;26812;42.662;23.352;2023-02-28T07:34:15;33.17;;;19.17;;
41061;SDS011;26812;42.662;23.352;2023-02-28T07:36:43;30.75;;;18.52;;
41061;SDS011;26812;42.662;23.352;2023-02-28T07:39:08;33.83;;;18.63;;
41061;SDS011;26812;42.662;23.352;2023-02-28T07:41:34;32.47;;;18.65;;
41061;SDS011;26812;42.662;23.352;2023-02-28T07:44:02;32.55;;;19.20;;
41061;SDS011;26812;42.662;23.352;2023-02-28T07:46:28;34.00;;;18.60;;
41061;SDS011;26812;42.662;23.352;2023-02-28T07:49:00;28.58;;;18.13;;
41061;SDS011;26812;42.662;23.352;2023-02-28T07:51:27;31.17;;;18.05;;
41061;SDS011;26812;42.662;23.352;2023-02-28T07:53:53;35.00;;;18.40;;
41061;SDS011;26812;42.662;23.352;2023-02-28T07:56:19;32.50;;;19.10;;
41061;SDS011;26812;42.662;23.352;2023-02-28T07:58:44;33.25;;;17.73;;
41061;SDS011;26812;42.662;23.352;2023-02-28T08:01:10;28.10;;;17.55;;
41061;SDS011;26812;42.662;23.352;2023-02-28T08:03:36;24.48;;;16.42;;
41061;SDS011;26812;42.662;23.352;2023-02-28T08:06:05;28.58;;;17.10;;
41061;SDS011;26812;42.662;23.352;2023-02-28T08:08:32;28.90;;;16.30;;
41061;SDS011;26812;42.662;23.352;2023-02-28T08:11:01;27.10;;;17.75;;
41061;SDS011;26812;42.662;23.352;2023-02-28T08:13:30;26.90;;;15.93;;
41061;SDS011;26812;42.662;23.352;2023-02-28T08:15:55;28.20;;;16.80;;
41061;SDS011;26812;42.662;23.352;2023-02-28T08:18:22;27.30;;;16.52;;
41061;SDS011;26812;42.662;23.352;2023-02-28T08:20:48;25.08;;;15.02;;
41061;SDS011;26812;42.662;23.352;2023-02-28T08:23:13;28.30;;;15.98;;
41061;SDS011;26812;42.662;23.352;2023-02-28T08:25:39;25.35;;;15.70;;
41061;SDS011;26812;42.662;23.352;2023-02-28T08:28:05;26.35;;;16.92;;
41061;SDS011;26812;42.662;23.352;2023-02-28T08:30:30;29.33;;;16.70;;
41061;SDS011;26812;42.662;23.352;2023-02-28T08:32:56;30.02;;;17.40;;
41061;SDS011;26812;42.662;23.352;2023-02-28T08:35:21;31.92;;;17.98;;
41061;SDS011;26812;42.662;23.352;2023-02-28T08:37:48;28.73;;;16.58;;
41061;SDS011;26812;42.662;23.352;2023-02-28T08:40:14;24.80;;;15.00;;
41061;SDS011;26812;42.662;23.352;2023-02-28T08:42:44;27.95;;;16.48;;
41061;SDS011;26812;42.662;23.352;2023-02-28T08:45:10;28.95;;;18.00;;
41061;SDS011;26812;42.662;23.352;2023-02-28T08:47:36;26.42;;;16.45;;
41061;SDS011;26812;42.662;23.352;2023-02-28T08:50:01;25.73;;;15.95;;
41061;SDS011;26812;42.662;23.352;2023-02-28T08:52:27;19.98;;;12.48;;
41061;SDS011;26812;42.662;23.352;2023-02-28T08:54:52;23.83;;;12.23;;
41061;SDS011;26812;42.662;23.352;2023-02-28T08:57:18;23.50;;;12.88;;
41061;SDS011;26812;42.662;23.352;2023-02-28T08:59:43;22.52;;;11.95;;
41061;SDS011;26812;42.662;23.352;2023-02-28T09:02:11;23.50;;;11.75;;
41061;SDS011;26812;42.662;23.352;2023-02-28T09:04:38;28.98;;;13.02;;
41061;SDS011;26812;42.662;23.352;2023-02-28T09:07:03;22.00;;;12.43;;
41061;SDS011;26812;42.662;23.352;2023-02-28T09:09:29;23.13;;;11.23;;
41061;SDS011;26812;42.662;23.352;2023-02-28T09:11:57;20.70;;;11.20;;
41061;SDS011;26812;42.662;23.352;2023-02-28T09:14:23;27.40;;;14.73;;
41061;SDS011;26812;42.662;23.352;2023-02-28T09:16:48;28.38;;;17.33;;
41061;SDS011;26812;42.662;23.352;2023-02-28T09:19:14;28.45;;;15.98;;
41061;SDS011;26812;42.662;23.352;2023-02-28T09:21:39;29.15;;;15.07;;
41061;SDS011;26812;42.662;23.352;2023-02-28T09:24:05;31.77;;;16.83;;
41061;SDS011;26812;42.662;23.352;2023-02-28T09:26:31;22.42;;;12.80;;
41061;SDS011;26812;42.662;23.352;2023-02-28T09:28:56;22.15;;;11.25;;
41061;SDS011;26812;42.662;23.352;2023-02-28T09:31:24;26.27;;;12.55;;
41061;SDS011;26812;42.662;23.352;2023-02-28T09:33:53;23.90;;;12.77;;
41061;SDS011;26812;42.662;23.352;2023-02-28T09:36:21;21.08;;;13.05;;
41061;SDS011;26812;42.662;23.352;2023-02-28T09:38:47;24.48;;;11.18;;
41061;SDS011;26812;42.662;23.352;2023-02-28T09:43:42;29.13;;;12.18;;
41061;SDS011;26812;42.662;23.352;2023-02-28T09:48:39;23.00;;;11.90;;
41061;SDS011;26812;42.662;23.352;2023-02-28T09:51:12;16.17;;;9.70;;
41061;SDS011;26812;42.662;23.352;2023-02-28T09:53:48;20.40;;;10.60;;
41061;SDS011;26812;42.662;23.352;2023-02-28T09:56:15;16.30;;;10.05;;
41061;SDS011;26812;42.662;23.352;2023-02-28T09:58:53;17.77;;;9.93;;
41061;SDS011;26812;42.662;23.352;2023-02-28T10:04:55;17.75;;;10.10;;
41061;SDS011;26812;42.662;23.352;2023-02-28T10:10:18;18.17;;;10.57;;
41061;SDS011;26812;42.662;23.352;2023-02-28T10:12:47;16.17;;;10.27;;
41061;SDS011;26812;42.662;23.352;2023-02-28T10:15:14;17.98;;;9.93;;
41061;SDS011;26812;42.662;23.352;2023-02-28T10:17:42;19.52;;;9.85;;
41061;SDS011;26812;42.662;23.352;2023-02-28T10:20:17;15.57;;;9.05;;
41061;SDS011;26812;42.662;23.352;2023-02-28T10:25:19;14.45;;;9.82;;
41061;SDS011;26812;42.662;23.352;2023-02-28T10:27:53;15.25;;;9.10;;
41061;SDS011;26812;42.662;23.352;2023-02-28T10:30:44;15.43;;;9.27;;
41061;SDS011;26812;42.662;23.352;2023-02-28T10:35:52;14.82;;;9.50;;
41061;SDS011;26812;42.662;23.352;2023-02-28T10:38:22;17.95;;;10.40;;
41061;SDS011;26812;42.662;23.352;2023-02-28T10:41:02;17.73;;;8.52;;
41061;SDS011;26812;42.662;23.352;2023-02-28T10:43:37;15.90;;;8.30;;
41061;SDS011;26812;42.662;23.352;2023-02-28T10:51:33;14.90;;;7.82;;
41061;SDS011;26812;42.662;23.352;2023-02-28T10:54:04;16.77;;;8.70;;
41061;SDS011;26812;42.662;23.352;2023-02-28T10:56:30;17.98;;;8.98;;
41061;SDS011;26812;42.662;23.352;2023-02-28T11:01:44;13.13;;;7.93;;
41061;SDS011;26812;42.662;23.352;2023-02-28T11:04:18;17.85;;;9.32;;
41061;SDS011;26812;42.662;23.352;2023-02-28T11:06:58;15.48;;;8.85;;
41061;SDS011;26812;42.662;23.352;2023-02-28T11:09:29;16.13;;;8.90;;
41061;SDS011;26812;42.662;23.352;2023-02-28T11:11:57;15.63;;;8.23;;
41061;SDS011;26812;42.662;23.352;2023-02-28T11:14:24;16.00;;;8.93;;
41061;SDS011;26812;42.662;23.352;2023-02-28T11:16:52;16.83;;;8.93;;
41061;SDS011;26812;42.662;23.352;2023-02-28T11:19:24;16.25;;;8.73;;
41061;SDS011;26812;42.662;23.352;2023-02-28T11:22:02;13.98;;;7.68;;
41061;SDS011;26812;42.662;23.352;2023-02-28T11:24:31;14.07;;;8.43;;
41061;SDS011;26812;42.662;23.352;2023-02-28T11:27:00;13.07;;;8.30;;
41061;SDS011;26812;42.662;23.352;2023-02-28T11:29:30;13.43;;;7.60;;
41061;SDS011;26812;42.662;23.352;2023-02-28T11:32:17;15.68;;;9.27;;
41061;SDS011;26812;42.662;23.352;2023-02-28T11:37:34;16.20;;;9.40;;
41061;SDS011;26812;42.662;23.352;2023-02-28T11:40:00;16.70;;;9.45;;
41061;SDS011;26812;42.662;23.352;2023-02-28T11:58:50;19.50;;;10.23;;
41061;SDS011;26812;42.662;23.352;2023-02-28T12:01:42;17.33;;;8.52;;
41061;SDS011;26812;42.662;23.352;2023-02-28T12:19:09;15.32;;;9.18;;
41061;SDS011;26812;42.662;23.352;2023-02-28T12:26:41;19.63;;;9.18;;
41061;SDS011;26812;42.662;23.352;2023-02-28T12:29:20;19.65;;;9.30;;
41061;SDS011;26812;42.662;23.352;2023-02-28T12:32:09;18.67;;;9.50;;
41061;SDS011;26812;42.662;23.352;2023-02-28T12:34:44;21.98;;;10.93;;
41061;SDS011;26812;42.662;23.352;2023-02-28T12:37:41;17.92;;;9.50;;
41061;SDS011;26812;42.662;23.352;2023-02-28T12:40:27;20.70;;;9.35;;
41061;SDS011;26812;42.662;23.352;2023-02-28T12:42:59;17.58;;;9.32;;
41061;SDS011;26812;42.662;23.352;2023-02-28T12:48:07;17.10;;;9.90;;
41061;SDS011;26812;42.662;23.352;2023-02-28T12:50:35;17.77;;;9.65;;
41061;SDS011;26812;42.662;23.352;2023-02-28T12:53:03;18.80;;;9.25;;
41061;SDS011;26812;42.662;23.352;2023-02-28T12:58:42;16.42;;;8.35;;
41061;SDS011;26812;42.662;23.352;2023-02-28T13:01:22;22.42;;;9.43;;
41061;SDS011;26812;42.662;23.352;2023-02-28T13:09:25;18.48;;;9.68;;
41061;SDS011;26812;42.662;23.352;2023-02-28T13:11:51;15.10;;;8.85;;
41061;SDS011;26812;42.662;23.352;2023-02-28T13:19:21;20.33;;;9.38;;
41061;SDS011;26812;42.662;23.352;2023-02-28T13:21:48;18.73;;;10.10;;
41061;SDS011;26812;42.662;23.352;2023-02-28T13:29:56;16.80;;;8.85;;
41061;SDS011;26812;42.662;23.352;2023-02-28T13:39:46;16.92;;;8.30;;
41061;SDS011;26812;42.662;23.352;2023-02-28T13:42:35;15.85;;;7.32;;
41061;SDS011;26812;42.662;23.352;2023-02-28T13:52:45;13.25;;;7.90;;
41061;SDS011;26812;42.662;23.352;2023-02-28T14:06:53;14.75;;;7.28;;
41061;SDS011;26812;42.662;23.352;2023-02-28T14:09:23;12.00;;;7.15;;
41061;SDS011;26812;42.662;23.352;2023-02-28T14:11:52;16.85;;;7.50;;
41061;SDS011;26812;42.662;23.352;2023-02-28T14:17:12;14.98;;;7.43;;
41061;SDS011;26812;42.662;23.352;2023-02-28T14:19:41;13.77;;;8.15;;
41061;SDS011;26812;42.662;23.352;2023-02-28T14:22:37;18.23;;;8.82;;
41061;SDS011;26812;42.662;23.352;2023-02-28T14:25:10;16.67;;;8.48;;
41061;SDS011;26812;42.662;23.352;2023-02-28T14:27:47;14.55;;;7.93;;
41061;SDS011;26812;42.662;23.352;2023-02-28T14:38:46;16.25;;;8.60;;
41061;SDS011;26812;42.662;23.352;2023-02-28T14:41:24;16.52;;;7.97;;
41061;SDS011;26812;42.662;23.352;2023-02-28T14:43:57;15.35;;;8.18;;
41061;SDS011;26812;42.662;23.352;2023-02-28T14:46:28;20.58;;;7.20;;
41061;SDS011;26812;42.662;23.352;2023-02-28T14:49:03;19.10;;;9.05;;
41061;SDS011;26812;42.662;23.352;2023-02-28T14:51:32;15.20;;;7.75;;
41061;SDS011;26812;42.662;23.352;2023-02-28T14:53:59;15.90;;;8.00;;
41061;SDS011;26812;42.662;23.352;2023-02-28T14:56:33;15.40;;;8.18;;
41061;SDS011;26812;42.662;23.352;2023-02-28T14:59:00;15.23;;;9.13;;
41061;SDS011;26812;42.662;23.352;2023-02-28T15:01:26;16.30;;;8.00;;
41061;SDS011;26812;42.662;23.352;2023-02-28T15:04:02;17.33;;;8.32;;
41061;SDS011;26812;42.662;23.352;2023-02-28T15:06:30;16.25;;;7.03;;
41061;SDS011;26812;42.662;23.352;2023-02-28T15:09:10;18.30;;;8.85;;
41061;SDS011;26812;42.662;23.352;2023-02-28T15:11:41;18.17;;;8.10;;
41061;SDS011;26812;42.662;23.352;2023-02-28T15:14:14;14.93;;;8.05;;
41061;SDS011;26812;42.662;23.352;2023-02-28T15:16:44;13.80;;;8.32;;
41061;SDS011;26812;42.662;23.352;2023-02-28T15:21:46;13.30;;;7.75;;
41061;SDS011;26812;42.662;23.352;2023-02-28T15:24:19;12.73;;;6.85;;
41061;SDS011;26812;42.662;23.352;2023-02-28T15:26:56;15.80;;;7.15;;
41061;SDS011;26812;42.662;23.352;2023-02-28T15:29:24;12.80;;;5.47;;
41061;SDS011;26812;42.662;23.352;2023-02-28T15:31:56;10.75;;;6.78;;
41061;SDS011;26812;42.662;23.352;2023-02-28T15:37:46;11.13;;;5.93;;
41061;SDS011;26812;42.662;23.352;2023-02-28T15:39:56;12.65;;;6.35;;
41061;SDS011;26812;42.662;23.352;2023-02-28T15:42:27;11.95;;;7.72;;
41061;SDS011;26812;42.662;23.352;2023-02-28T15:44:53;11.00;;;6.13;;
41061;SDS011;26812;42.662;23.352;2023-02-28T15:47:20;14.25;;;8.10;;
41061;SDS011;26812;42.662;23.352;2023-02-28T15:49:51;12.77;;;6.43;;
41061;SDS011;26812;42.662;23.352;2023-02-28T15:52:18;16.08;;;7.97;;
41061;SDS011;26812;42.662;23.352;2023-02-28T15:54:47;13.63;;;6.53;;
41061;SDS011;26812;42.662;23.352;2023-02-28T15:57:17;10.50;;;6.15;;
41061;SDS011;26812;42.662;23.352;2023-02-28T15:59:55;10.48;;;5.93;;
41061;SDS011;26812;42.662;23.352;2023-02-28T16:02:31;10.98;;;5.78;;
41061;SDS011;26812;42.662;23.352;2023-02-28T16:07:45;10.25;;;6.43;;
41061;SDS011;26812;42.662;23.352;2023-02-28T16:10:13;15.00;;;7.53;;
41061;SDS011;26812;42.662;23.352;2023-02-28T16:12:42;10.35;;;6.45;;
41061;SDS011;26812;42.662;23.352;2023-02-28T16:15:08;9.70;;;6.07;;
41061;SDS011;26812;42.662;23.352;2023-02-28T16:17:43;10.45;;;6.40;;
41061;SDS011;26812;42.662;23.352;2023-02-28T16:20:28;10.57;;;6.03;;
41061;SDS011;26812;42.662;23.352;2023-02-28T16:22:55;12.77;;;6.68;;
41061;SDS011;26812;42.662;23.352;2023-02-28T16:28:18;11.30;;;6.53;;
41061;SDS011;26812;42.662;23.352;2023-02-28T16:30:57;8.90;;;5.78;;
41061;SDS011;26812;42.662;23.352;2023-02-28T16:33:24;13.35;;;6.68;;
41061;SDS011;26812;42.662;23.352;2023-02-28T16:35:49;11.07;;;5.22;;
41061;SDS011;26812;42.662;23.352;2023-02-28T16:38:15;9.98;;;6.15;;
41061;SDS011;26812;42.662;23.352;2023-02-28T16:40:40;9.57;;;5.82;;
41061;SDS011;26812;42.662;23.352;2023-02-28T16:43:13;10.57;;;6.50;;
41061;SDS011;26812;42.662;23.352;2023-02-28T16:45:42;11.15;;;5.93;;
41061;SDS011;26812;42.662;23.352;2023-02-28T16:48:10;8.15;;;5.10;;
41061;SDS011;26812;42.662;23.352;2023-02-28T16:50:38;10.50;;;4.95;;
41061;SDS011;26812;42.662;23.352;2023-02-28T16:53:04;9.05;;;6.07;;
41061;SDS011;26812;42.662;23.352;2023-02-28T16:55:29;11.15;;;5.22;;
41061;SDS011;26812;42.662;23.352;2023-02-28T16:57:56;12.38;;;5.95;;
41061;SDS011;26812;42.662;23.352;2023-02-28T17:00:23;6.93;;;5.00;;
41061;SDS011;26812;42.662;23.352;2023-02-28T17:02:50;7.70;;;4.60;;
41061;SDS011;26812;42.662;23.352;2023-02-28T17:05:15;6.20;;;4.95;;
41061;SDS011;26812;42.662;23.352;2023-02-28T17:07:42;7.80;;;4.80;;
41061;SDS011;26812;42.662;23.352;2023-02-28T17:10:24;6.57;;;4.70;;
41061;SDS011;26812;42.662;23.352;2023-02-28T17:12:51;6.00;;;4.38;;
41061;SDS011;26812;42.662;23.352;2023-02-28T17:15:17;7.43;;;4.93;;
41061;SDS011;26812;42.662;23.352;2023-02-28T17:17:43;6.70;;;4.50;;
41061;SDS011;26812;42.662;23.352;2023-02-28T17:20:14;5.57;;;4.03;;
41061;SDS011;26812;42.662;23.352;2023-02-28T17:22:47;7.93;;;4.82;;
41061;SDS011;26812;42.662;23.352;2023-02-28T17:25:13;7.72;;;4.82;;
41061;SDS011;26812;42.662;23.352;2023-02-28T17:27:38;8.75;;;4.85;;